Terminal Aerodrome Forecast
Issued by NWS

Home | Current Version | Previous Version | Text Only | Print | Product List | Glossary On
Versions: 1 2 3 4 5 6 7 8 9 10 11 12 13 14 15 16 17 18 19 20 21 22 23 24
000
FTUS43 KGLD 202330
TAFMCK
TAF
KMCK 202330Z 2100/2124 14009KT P6SM FEW250
     FM210700 13006KT P6SM SKC WS020/15030KT
     FM211400 15008KT P6SM FEW250 WS008/17015KT
     FM211500 16010G20KT P6SM FEW250=

USA.gov is the U.S. government's official web portal to all federal, state and local government web resources and services.